sensor_id;sensor_type;location;lat;lon;timestamp;pressure;altitude;pressure_sealevel;temperature;humidity
51299;BME280;37382;45.192;9.790;2024-02-21T00:01:43;102208.03;;;7.05;100.00
51299;BME280;37382;45.192;9.790;2024-02-21T00:04:10;102206.38;;;7.24;100.00
51299;BME280;37382;45.192;9.790;2024-02-21T00:06:38;102201.41;;;7.39;100.00
51299;BME280;37382;45.192;9.790;2024-02-21T00:09:05;102200.13;;;7.53;100.00
51299;BME280;37382;45.192;9.790;2024-02-21T00:11:32;102199.13;;;7.63;100.00
51299;BME280;37382;45.192;9.790;2024-02-21T00:14:00;102187.44;;;7.73;100.00
51299;BME280;37382;45.192;9.790;2024-02-21T00:16:28;102195.69;;;7.91;100.00
51299;BME280;37382;45.192;9.790;2024-02-21T00:18:55;102188.72;;;7.98;100.00
51299;BME280;37382;45.192;9.790;2024-02-21T00:21:23;102192.13;;;8.00;100.00
51299;BME280;37382;45.192;9.790;2024-02-21T00:23:50;102190.56;;;7.88;100.00
51299;BME280;37382;45.192;9.790;2024-02-21T00:26:18;102183.00;;;7.91;100.00
51299;BME280;37382;45.192;9.790;2024-02-21T00:28:45;102188.44;;;7.81;100.00
51299;BME280;37382;45.192;9.790;2024-02-21T00:31:13;102181.31;;;7.61;100.00
51299;BME280;37382;45.192;9.790;2024-02-21T00:33:40;102187.16;;;7.46;100.00
51299;BME280;37382;45.192;9.790;2024-02-21T00:36:08;102187.84;;;7.29;100.00
51299;BME280;37382;45.192;9.790;2024-02-21T00:38:36;102199.97;;;7.44;100.00
51299;BME280;37382;45.192;9.790;2024-02-21T00:41:03;102192.50;;;6.98;100.00
51299;BME280;37382;45.192;9.790;2024-02-21T00:43:31;102186.28;;;6.35;100.00
51299;BME280;37382;45.192;9.790;2024-02-21T00:45:58;102193.25;;;5.75;100.00
51299;BME280;37382;45.192;9.790;2024-02-21T00:48:26;102195.94;;;5.75;100.00
51299;BME280;37382;45.192;9.790;2024-02-21T00:50:53;102193.56;;;6.14;100.00
51299;BME280;37382;45.192;9.790;2024-02-21T00:53:23;102187.66;;;6.09;100.00
51299;BME280;37382;45.192;9.790;2024-02-21T00:55:51;102187.00;;;5.74;100.00
51299;BME280;37382;45.192;9.790;2024-02-21T00:58:19;102200.16;;;5.88;100.00
51299;BME280;37382;45.192;9.790;2024-02-21T01:00:46;102206.25;;;6.23;100.00
51299;BME280;37382;45.192;9.790;2024-02-21T01:03:14;102194.63;;;6.53;100.00
51299;BME280;37382;45.192;9.790;2024-02-21T01:05:41;102193.38;;;6.67;100.00
51299;BME280;37382;45.192;9.790;2024-02-21T01:08:08;102184.38;;;6.57;100.00
51299;BME280;37382;45.192;9.790;2024-02-21T01:10:36;102181.53;;;6.58;100.00
51299;BME280;37382;45.192;9.790;2024-02-21T01:13:03;102175.63;;;6.44;100.00
51299;BME280;37382;45.192;9.790;2024-02-21T01:15:30;102180.09;;;6.54;100.00
51299;BME280;37382;45.192;9.790;2024-02-21T01:17:58;102184.78;;;6.52;100.00
51299;BME280;37382;45.192;9.790;2024-02-21T01:20:26;102179.88;;;6.67;100.00
51299;BME280;37382;45.192;9.790;2024-02-21T01:22:53;102190.91;;;6.85;100.00
51299;BME280;37382;45.192;9.790;2024-02-21T01:25:20;102184.75;;;6.83;100.00
51299;BME280;37382;45.192;9.790;2024-02-21T01:27:48;102179.88;;;6.67;100.00
51299;BME280;37382;45.192;9.790;2024-02-21T01:30:15;102186.69;;;6.71;100.00
51299;BME280;37382;45.192;9.790;2024-02-21T01:32:42;102180.66;;;6.89;100.00
51299;BME280;37382;45.192;9.790;2024-02-21T01:35:10;102186.34;;;6.86;100.00
51299;BME280;37382;45.192;9.790;2024-02-21T01:37:37;102184.53;;;6.96;100.00
51299;BME280;37382;45.192;9.790;2024-02-21T01:40:05;102184.03;;;6.81;100.00
51299;BME280;37382;45.192;9.790;2024-02-21T01:42:33;102189.81;;;6.36;100.00
51299;BME280;37382;45.192;9.790;2024-02-21T01:45:05;102179.03;;;6.15;100.00
51299;BME280;37382;45.192;9.790;2024-02-21T01:47:33;102184.16;;;6.39;100.00
51299;BME280;37382;45.192;9.790;2024-02-21T01:50:01;102183.19;;;6.19;100.00
51299;BME280;37382;45.192;9.790;2024-02-21T01:52:30;102180.63;;;6.48;100.00
51299;BME280;37382;45.192;9.790;2024-02-21T01:54:58;102168.41;;;6.44;100.00
51299;BME280;37382;45.192;9.790;2024-02-21T01:57:26;102170.72;;;6.58;100.00
51299;BME280;37382;45.192;9.790;2024-02-21T01:59:53;102169.75;;;6.59;100.00
51299;BME280;37382;45.192;9.790;2024-02-21T02:02:21;102172.25;;;6.51;100.00
51299;BME280;37382;45.192;9.790;2024-02-21T02:04:48;102168.25;;;6.46;100.00
51299;BME280;37382;45.192;9.790;2024-02-21T02:07:16;102176.66;;;6.52;100.00
51299;BME280;37382;45.192;9.790;2024-02-21T02:09:43;102166.16;;;6.59;100.00
51299;BME280;37382;45.192;9.790;2024-02-21T02:12:11;102164.84;;;6.22;100.00
51299;BME280;37382;45.192;9.790;2024-02-21T02:14:38;102162.31;;;6.00;100.00
51299;BME280;37382;45.192;9.790;2024-02-21T02:17:05;102168.06;;;5.95;100.00
51299;BME280;37382;45.192;9.790;2024-02-21T02:19:33;102160.75;;;6.28;100.00
51299;BME280;37382;45.192;9.790;2024-02-21T02:22:13;102156.28;;;6.48;100.00
51299;BME280;37382;45.192;9.790;2024-02-21T02:24:43;102159.53;;;6.42;100.00
51299;BME280;37382;45.192;9.790;2024-02-21T02:27:10;102159.75;;;6.50;100.00
51299;BME280;37382;45.192;9.790;2024-02-21T02:29:38;102161.84;;;6.78;100.00
51299;BME280;37382;45.192;9.790;2024-02-21T02:32:05;102144.91;;;6.85;100.00
51299;BME280;37382;45.192;9.790;2024-02-21T02:34:33;102139.38;;;6.87;100.00
51299;BME280;37382;45.192;9.790;2024-02-21T02:37:00;102152.00;;;6.76;100.00
51299;BME280;37382;45.192;9.790;2024-02-21T02:39:29;102155.41;;;6.38;100.00
51299;BME280;37382;45.192;9.790;2024-02-21T02:41:56;102162.34;;;6.31;100.00
51299;BME280;37382;45.192;9.790;2024-02-21T02:44:23;102168.75;;;5.66;100.00
51299;BME280;37382;45.192;9.790;2024-02-21T02:46:51;102176.00;;;5.33;100.00
51299;BME280;37382;45.192;9.790;2024-02-21T02:49:18;102175.22;;;5.10;100.00
51299;BME280;37382;45.192;9.790;2024-02-21T02:51:45;102177.09;;;4.76;100.00
51299;BME280;37382;45.192;9.790;2024-02-21T02:54:13;102174.88;;;4.81;100.00
51299;BME280;37382;45.192;9.790;2024-02-21T02:56:40;102185.44;;;4.61;100.00
51299;BME280;37382;45.192;9.790;2024-02-21T02:59:09;102184.59;;;4.50;100.00
51299;BME280;37382;45.192;9.790;2024-02-21T03:01:36;102170.63;;;4.33;100.00
51299;BME280;37382;45.192;9.790;2024-02-21T03:04:05;102174.66;;;4.50;100.00
51299;BME280;37382;45.192;9.790;2024-02-21T03:06:32;102178.69;;;4.78;100.00
51299;BME280;37382;45.192;9.790;2024-02-21T03:09:00;102173.59;;;5.08;100.00
51299;BME280;37382;45.192;9.790;2024-02-21T03:11:29;102177.56;;;4.81;100.00
51299;BME280;37382;45.192;9.790;2024-02-21T03:13:57;102180.00;;;4.95;100.00
51299;BME280;37382;45.192;9.790;2024-02-21T03:16:25;102181.41;;;4.56;100.00
51299;BME280;37382;45.192;9.790;2024-02-21T03:18:52;102187.63;;;4.34;100.00
51299;BME280;37382;45.192;9.790;2024-02-21T03:21:20;102172.19;;;4.70;100.00
51299;BME280;37382;45.192;9.790;2024-02-21T03:23:47;102176.34;;;4.96;100.00
51299;BME280;37382;45.192;9.790;2024-02-21T03:26:15;102173.28;;;4.90;100.00
51299;BME280;37382;45.192;9.790;2024-02-21T03:28:44;102176.81;;;5.02;100.00
51299;BME280;37382;45.192;9.790;2024-02-21T03:31:15;102184.16;;;5.11;100.00
51299;BME280;37382;45.192;9.790;2024-02-21T03:33:43;102183.56;;;5.40;100.00
51299;BME280;37382;45.192;9.790;2024-02-21T03:36:14;102171.22;;;5.58;100.00
51299;BME280;37382;45.192;9.790;2024-02-21T03:38:42;102184.06;;;5.66;100.00
51299;BME280;37382;45.192;9.790;2024-02-21T03:41:10;102184.59;;;5.60;100.00
51299;BME280;37382;45.192;9.790;2024-02-21T03:43:38;102189.53;;;5.11;100.00
51299;BME280;37382;45.192;9.790;2024-02-21T03:46:06;102185.94;;;5.22;100.00
51299;BME280;37382;45.192;9.790;2024-02-21T03:48:34;102187.28;;;5.27;100.00
51299;BME280;37382;45.192;9.790;2024-02-21T03:51:01;102182.47;;;4.98;100.00
51299;BME280;37382;45.192;9.790;2024-02-21T03:53:28;102184.31;;;4.87;100.00
51299;BME280;37382;45.192;9.790;2024-02-21T03:55:56;102181.22;;;5.03;100.00
51299;BME280;37382;45.192;9.790;2024-02-21T03:58:24;102174.69;;;5.16;100.00
51299;BME280;37382;45.192;9.790;2024-02-21T04:00:51;102177.44;;;5.38;100.00
51299;BME280;37382;45.192;9.790;2024-02-21T04:03:19;102179.53;;;5.34;100.00
51299;BME280;37382;45.192;9.790;2024-02-21T04:05:47;102179.06;;;5.29;100.00
51299;BME280;37382;45.192;9.790;2024-02-21T04:08:14;102177.91;;;5.43;100.00
51299;BME280;37382;45.192;9.790;2024-02-21T04:10:42;102175.63;;;4.83;100.00
51299;BME280;37382;45.192;9.790;2024-02-21T04:13:09;102178.16;;;4.96;100.00
51299;BME280;37382;45.192;9.790;2024-02-21T04:15:37;102188.19;;;5.16;100.00
51299;BME280;37382;45.192;9.790;2024-02-21T04:18:05;102191.25;;;5.12;100.00
51299;BME280;37382;45.192;9.790;2024-02-21T04:20:34;102202.22;;;4.65;100.00
51299;BME280;37382;45.192;9.790;2024-02-21T04:23:03;102211.75;;;4.24;100.00
51299;BME280;37382;45.192;9.790;2024-02-21T04:25:30;102208.00;;;3.91;100.00
51299;BME280;37382;45.192;9.790;2024-02-21T04:27:57;102219.16;;;3.98;100.00
51299;BME280;37382;45.192;9.790;2024-02-21T04:30:25;102219.47;;;3.82;100.00
51299;BME280;37382;45.192;9.790;2024-02-21T04:32:52;102220.00;;;3.98;100.00
51299;BME280;37382;45.192;9.790;2024-02-21T04:35:20;102221.94;;;4.66;100.00
51299;BME280;37382;45.192;9.790;2024-02-21T04:37:49;102215.06;;;4.84;100.00
51299;BME280;37382;45.192;9.790;2024-02-21T04:40:16;102202.69;;;5.04;100.00
51299;BME280;37382;45.192;9.790;2024-02-21T04:42:44;102199.31;;;5.23;100.00
51299;BME280;37382;45.192;9.790;2024-02-21T04:45:11;102200.06;;;5.14;100.00
51299;BME280;37382;45.192;9.790;2024-02-21T04:47:39;102196.50;;;5.25;100.00
51299;BME280;37382;45.192;9.790;2024-02-21T04:50:06;102193.91;;;5.34;100.00
51299;BME280;37382;45.192;9.790;2024-02-21T04:52:34;102191.91;;;5.37;100.00
51299;BME280;37382;45.192;9.790;2024-02-21T04:55:01;102182.94;;;5.47;100.00
51299;BME280;37382;45.192;9.790;2024-02-21T04:57:29;102190.47;;;5.32;100.00
51299;BME280;37382;45.192;9.790;2024-02-21T04:59:56;102192.63;;;5.39;100.00
51299;BME280;37382;45.192;9.790;2024-02-21T05:02:23;102186.41;;;5.38;100.00
51299;BME280;37382;45.192;9.790;2024-02-21T05:04:52;102185.81;;;5.56;100.00
51299;BME280;37382;45.192;9.790;2024-02-21T05:07:19;102190.22;;;5.68;100.00
51299;BME280;37382;45.192;9.790;2024-02-21T05:09:47;102187.31;;;5.81;100.00
51299;BME280;37382;45.192;9.790;2024-02-21T05:12:14;102185.84;;;5.77;100.00
51299;BME280;37382;45.192;9.790;2024-02-21T05:14:42;102183.50;;;5.51;100.00
51299;BME280;37382;45.192;9.790;2024-02-21T05:17:09;102181.44;;;5.55;100.00
51299;BME280;37382;45.192;9.790;2024-02-21T05:19:37;102179.66;;;5.32;100.00
51299;BME280;37382;45.192;9.790;2024-02-21T05:22:05;102172.91;;;5.38;100.00
51299;BME280;37382;45.192;9.790;2024-02-21T05:24:32;102182.97;;;5.36;100.00
51299;BME280;37382;45.192;9.790;2024-02-21T05:27:00;102183.94;;;5.67;100.00
51299;BME280;37382;45.192;9.790;2024-02-21T05:29:27;102184.19;;;5.64;100.00
51299;BME280;37382;45.192;9.790;2024-02-21T05:31:56;102190.34;;;5.66;100.00
51299;BME280;37382;45.192;9.790;2024-02-21T05:34:25;102184.97;;;5.55;100.00
51299;BME280;37382;45.192;9.790;2024-02-21T05:36:53;102192.63;;;5.50;100.00
51299;BME280;37382;45.192;9.790;2024-02-21T05:39:20;102192.28;;;4.88;100.00
51299;BME280;37382;45.192;9.790;2024-02-21T05:41:50;102207.56;;;4.20;100.00
51299;BME280;37382;45.192;9.790;2024-02-21T05:44:18;102213.50;;;3.89;100.00
51299;BME280;37382;45.192;9.790;2024-02-21T05:46:46;102217.81;;;3.68;100.00
51299;BME280;37382;45.192;9.790;2024-02-21T05:49:13;102222.13;;;3.46;100.00
51299;BME280;37382;45.192;9.790;2024-02-21T05:51:41;102228.72;;;3.42;100.00
51299;BME280;37382;45.192;9.790;2024-02-21T05:54:09;102215.38;;;3.65;100.00
51299;BME280;37382;45.192;9.790;2024-02-21T05:56:36;102217.88;;;3.79;100.00
51299;BME280;37382;45.192;9.790;2024-02-21T05:59:03;102221.81;;;3.86;100.00
51299;BME280;37382;45.192;9.790;2024-02-21T06:01:31;102217.44;;;3.97;100.00
51299;BME280;37382;45.192;9.790;2024-02-21T06:03:58;102214.53;;;4.11;100.00
51299;BME280;37382;45.192;9.790;2024-02-21T06:06:25;102214.53;;;3.76;100.00
51299;BME280;37382;45.192;9.790;2024-02-21T06:08:53;102214.88;;;4.06;100.00
51299;BME280;37382;45.192;9.790;2024-02-21T06:11:20;102213.91;;;4.07;100.00
51299;BME280;37382;45.192;9.790;2024-02-21T06:13:48;102212.88;;;4.33;100.00
51299;BME280;37382;45.192;9.790;2024-02-21T06:16:15;102225.72;;;4.52;100.00
51299;BME280;37382;45.192;9.790;2024-02-21T06:18:43;102218.50;;;4.75;100.00
51299;BME280;37382;45.192;9.790;2024-02-21T06:21:10;102224.25;;;5.04;100.00
51299;BME280;37382;45.192;9.790;2024-02-21T06:23:39;102230.53;;;4.48;100.00
51299;BME280;37382;45.192;9.790;2024-02-21T06:26:06;102232.59;;;4.56;100.00
51299;BME280;37382;45.192;9.790;2024-02-21T06:28:34;102236.78;;;4.60;100.00
51299;BME280;37382;45.192;9.790;2024-02-21T06:31:01;102226.13;;;4.58;100.00
51299;BME280;37382;45.192;9.790;2024-02-21T06:33:29;102219.72;;;4.82;100.00
51299;BME280;37382;45.192;9.790;2024-02-21T06:35:56;102219.84;;;5.03;100.00
51299;BME280;37382;45.192;9.790;2024-02-21T06:38:24;102220.47;;;4.95;100.00
51299;BME280;37382;45.192;9.790;2024-02-21T06:40:52;102213.97;;;4.98;100.00
51299;BME280;37382;45.192;9.790;2024-02-21T06:43:21;102230.03;;;4.66;100.00
51299;BME280;37382;45.192;9.790;2024-02-21T06:45:49;102241.25;;;4.14;100.00
51299;BME280;37382;45.192;9.790;2024-02-21T06:48:20;102246.69;;;3.90;100.00
51299;BME280;37382;45.192;9.790;2024-02-21T06:50:48;102249.28;;;4.03;100.00
51299;BME280;37382;45.192;9.790;2024-02-21T06:53:15;102250.81;;;3.83;100.00
51299;BME280;37382;45.192;9.790;2024-02-21T06:55:43;102249.72;;;3.85;100.00
51299;BME280;37382;45.192;9.790;2024-02-21T06:58:10;102245.88;;;4.12;100.00
51299;BME280;37382;45.192;9.790;2024-02-21T07:00:39;102243.00;;;4.38;100.00
51299;BME280;37382;45.192;9.790;2024-02-21T07:03:07;102246.44;;;4.62;100.00
51299;BME280;37382;45.192;9.790;2024-02-21T07:05:35;102258.22;;;4.84;100.00
51299;BME280;37382;45.192;9.790;2024-02-21T07:08:02;102266.69;;;4.57;100.00
51299;BME280;37382;45.192;9.790;2024-02-21T07:10:30;102273.22;;;4.30;100.00
51299;BME280;37382;45.192;9.790;2024-02-21T07:12:58;102268.72;;;4.42;100.00
51299;BME280;37382;45.192;9.790;2024-02-21T07:15:25;102277.47;;;4.21;100.00
51299;BME280;37382;45.192;9.790;2024-02-21T07:17:54;102275.81;;;4.32;100.00
51299;BME280;37382;45.192;9.790;2024-02-21T07:20:21;102280.34;;;4.31;100.00
51299;BME280;37382;45.192;9.790;2024-02-21T07:22:49;102279.19;;;4.69;100.00
51299;BME280;37382;45.192;9.790;2024-02-21T07:25:16;102291.38;;;4.51;100.00
51299;BME280;37382;45.192;9.790;2024-02-21T07:27:44;102285.38;;;4.36;100.00
51299;BME280;37382;45.192;9.790;2024-02-21T07:30:12;102282.94;;;4.44;100.00
51299;BME280;37382;45.192;9.790;2024-02-21T07:32:43;102284.44;;;4.82;100.00
51299;BME280;37382;45.192;9.790;2024-02-21T07:35:11;102290.81;;;4.92;100.00
51299;BME280;37382;45.192;9.790;2024-02-21T07:37:39;102282.34;;;5.08;100.00
51299;BME280;37382;45.192;9.790;2024-02-21T07:40:12;102283.88;;;5.45;100.00
51299;BME280;37382;45.192;9.790;2024-02-21T07:42:40;102279.78;;;5.73;100.00
51299;BME280;37382;45.192;9.790;2024-02-21T07:45:08;102274.94;;;5.88;100.00
51299;BME280;37382;45.192;9.790;2024-02-21T07:47:36;102269.25;;;6.02;100.00
51299;BME280;37382;45.192;9.790;2024-02-21T07:50:04;102280.81;;;6.04;100.00
51299;BME280;37382;45.192;9.790;2024-02-21T07:52:32;102277.91;;;6.38;100.00
51299;BME280;37382;45.192;9.790;2024-02-21T07:55:00;102280.34;;;6.41;100.00
51299;BME280;37382;45.192;9.790;2024-02-21T07:57:28;102277.69;;;6.30;100.00
51299;BME280;37382;45.192;9.790;2024-02-21T07:59:55;102286.97;;;6.58;100.00
51299;BME280;37382;45.192;9.790;2024-02-21T08:02:22;102287.22;;;6.76;100.00
51299;BME280;37382;45.192;9.790;2024-02-21T08:04:50;102283.44;;;6.89;100.00
51299;BME280;37382;45.192;9.790;2024-02-21T08:07:17;102283.97;;;7.13;100.00
51299;BME280;37382;45.192;9.790;2024-02-21T08:09:44;102283.88;;;7.25;100.00
51299;BME280;37382;45.192;9.790;2024-02-21T08:12:12;102289.16;;;7.36;100.00
51299;BME280;37382;45.192;9.790;2024-02-21T08:14:39;102278.75;;;7.41;100.00
51299;BME280;37382;45.192;9.790;2024-02-21T08:17:08;102281.72;;;7.19;100.00
51299;BME280;37382;45.192;9.790;2024-02-21T08:19:36;102288.41;;;7.24;100.00
51299;BME280;37382;45.192;9.790;2024-02-21T08:22:03;102288.28;;;7.26;100.00
51299;BME280;37382;45.192;9.790;2024-02-21T08:24:31;102289.59;;;7.32;100.00
51299;BME280;37382;45.192;9.790;2024-02-21T08:26:58;102290.13;;;7.16;100.00
51299;BME280;37382;45.192;9.790;2024-02-21T08:29:26;102293.19;;;7.11;100.00
51299;BME280;37382;45.192;9.790;2024-02-21T08:31:53;102298.22;;;7.16;100.00
51299;BME280;37382;45.192;9.790;2024-02-21T08:34:21;102294.97;;;7.22;100.00
51299;BME280;37382;45.192;9.790;2024-02-21T08:36:48;102301.66;;;7.27;100.00
51299;BME280;37382;45.192;9.790;2024-02-21T08:39:16;102302.69;;;7.26;100.00
51299;BME280;37382;45.192;9.790;2024-02-21T08:41:44;102296.78;;;7.62;100.00
51299;BME280;37382;45.192;9.790;2024-02-21T08:44:23;102302.66;;;8.06;100.00
51299;BME280;37382;45.192;9.790;2024-02-21T08:46:54;102299.06;;;7.76;100.00
51299;BME280;37382;45.192;9.790;2024-02-21T08:49:21;102294.41;;;7.98;100.00
51299;BME280;37382;45.192;9.790;2024-02-21T08:51:49;102294.81;;;8.23;100.00
51299;BME280;37382;45.192;9.790;2024-02-21T08:54:16;102293.38;;;8.18;100.00
51299;BME280;37382;45.192;9.790;2024-02-21T08:56:44;102284.81;;;8.33;100.00
51299;BME280;37382;45.192;9.790;2024-02-21T08:59:11;102289.53;;;8.11;100.00
51299;BME280;37382;45.192;9.790;2024-02-21T09:01:39;102287.97;;;8.28;100.00
51299;BME280;37382;45.192;9.790;2024-02-21T09:04:06;102275.75;;;8.62;100.00
51299;BME280;37382;45.192;9.790;2024-02-21T09:06:34;102279.69;;;8.30;100.00
51299;BME280;37382;45.192;9.790;2024-02-21T09:09:06;102284.22;;;8.29;100.00
51299;BME280;37382;45.192;9.790;2024-02-21T09:11:35;102289.66;;;8.39;100.00
51299;BME280;37382;45.192;9.790;2024-02-21T09:14:02;102285.41;;;8.84;100.00
51299;BME280;37382;45.192;9.790;2024-02-21T09:16:31;102279.31;;;9.10;100.00
51299;BME280;37382;45.192;9.790;2024-02-21T09:19:00;102278.81;;;9.24;100.00
51299;BME280;37382;45.192;9.790;2024-02-21T09:21:28;102271.72;;;9.13;100.00
51299;BME280;37382;45.192;9.790;2024-02-21T09:23:55;102265.31;;;9.60;100.00
51299;BME280;37382;45.192;9.790;2024-02-21T09:26:26;102265.53;;;10.03;100.00
51299;BME280;37382;45.192;9.790;2024-02-21T09:28:54;102260.56;;;9.80;100.00
51299;BME280;37382;45.192;9.790;2024-02-21T09:31:21;102262.34;;;9.89;100.00
51299;BME280;37382;45.192;9.790;2024-02-21T09:33:49;102264.50;;;10.40;100.00
51299;BME280;37382;45.192;9.790;2024-02-21T09:36:17;102253.41;;;10.59;100.00
51299;BME280;37382;45.192;9.790;2024-02-21T09:38:44;102250.63;;;10.51;100.00
51299;BME280;37382;45.192;9.790;2024-02-21T09:41:16;102252.00;;;10.81;100.00
51299;BME280;37382;45.192;9.790;2024-02-21T09:43:50;102252.97;;;10.72;100.00
51299;BME280;37382;45.192;9.790;2024-02-21T09:46:45;102248.06;;;11.18;100.00
51299;BME280;37382;45.192;9.790;2024-02-21T09:51:53;102254.97;;;11.39;100.00
51299;BME280;37382;45.192;9.790;2024-02-21T09:54:22;102255.66;;;11.49;100.00
51299;BME280;37382;45.192;9.790;2024-02-21T09:56:50;102250.34;;;11.39;100.00
51299;BME280;37382;45.192;9.790;2024-02-21T09:59:17;102259.09;;;11.51;100.00
51299;BME280;37382;45.192;9.790;2024-02-21T10:01:46;102257.19;;;11.44;100.00
51299;BME280;37382;45.192;9.790;2024-02-21T10:04:17;102259.25;;;11.58;100.00
51299;BME280;37382;45.192;9.790;2024-02-21T10:06:46;102262.53;;;11.70;100.00
51299;BME280;37382;45.192;9.790;2024-02-21T10:09:25;102263.22;;;11.88;100.00
51299;BME280;37382;45.192;9.790;2024-02-21T10:12:15;102254.06;;;11.98;100.00
51299;BME280;37382;45.192;9.790;2024-02-21T10:14:46;102257.28;;;12.18;100.00
51299;BME280;37382;45.192;9.790;2024-02-21T10:17:17;102251.84;;;12.18;100.00
51299;BME280;37382;45.192;9.790;2024-02-21T10:19:46;102249.41;;;12.39;100.00
51299;BME280;37382;45.192;9.790;2024-02-21T10:22:15;102251.16;;;12.32;100.00
51299;BME280;37382;45.192;9.790;2024-02-21T10:24:42;102247.00;;;12.53;100.00
51299;BME280;37382;45.192;9.790;2024-02-21T10:27:10;102250.44;;;12.46;100.00
51299;BME280;37382;45.192;9.790;2024-02-21T10:29:40;102254.50;;;12.67;100.00
51299;BME280;37382;45.192;9.790;2024-02-21T10:32:13;102253.75;;;12.81;100.00
51299;BME280;37382;45.192;9.790;2024-02-21T10:34:42;102244.84;;;12.96;100.00
51299;BME280;37382;45.192;9.790;2024-02-21T10:37:11;102237.50;;;12.96;100.00
51299;BME280;37382;45.192;9.790;2024-02-21T10:39:40;102246.53;;;13.05;100.00
51299;BME280;37382;45.192;9.790;2024-02-21T10:42:10;102250.69;;;12.93;100.00
51299;BME280;37382;45.192;9.790;2024-02-21T10:44:39;102243.78;;;13.05;100.00
51299;BME280;37382;45.192;9.790;2024-02-21T10:47:11;102239.06;;;12.91;100.00
51299;BME280;37382;45.192;9.790;2024-02-21T10:49:41;102232.41;;;12.93;100.00
51299;BME280;37382;45.192;9.790;2024-02-21T10:52:27;102234.44;;;13.31;100.00
51299;BME280;37382;45.192;9.790;2024-02-21T10:55:04;102231.22;;;13.59;100.00
51299;BME280;37382;45.192;9.790;2024-02-21T10:57:34;102230.56;;;13.57;100.00
51299;BME280;37382;45.192;9.790;2024-02-21T11:00:04;102217.72;;;13.34;100.00
51299;BME280;37382;45.192;9.790;2024-02-21T11:02:36;102219.69;;;14.10;100.00
51299;BME280;37382;45.192;9.790;2024-02-21T11:05:04;102210.56;;;14.17;100.00
51299;BME280;37382;45.192;9.790;2024-02-21T11:07:36;102201.78;;;14.22;100.00
51299;BME280;37382;45.192;9.790;2024-02-21T11:10:04;102203.50;;;14.23;100.00
51299;BME280;37382;45.192;9.790;2024-02-21T11:12:34;102195.66;;;14.20;100.00
51299;BME280;37382;45.192;9.790;2024-02-21T11:15:05;102190.88;;;14.37;100.00
51299;BME280;37382;45.192;9.790;2024-02-21T11:17:33;102184.38;;;14.38;100.00
51299;BME280;37382;45.192;9.790;2024-02-21T11:20:14;102183.13;;;14.26;100.00
51299;BME280;37382;45.192;9.790;2024-02-21T11:22:42;102178.88;;;14.23;100.00
51299;BME280;37382;45.192;9.790;2024-02-21T11:25:10;102167.28;;;14.21;100.00
51299;BME280;37382;45.192;9.790;2024-02-21T11:27:47;102159.47;;;14.77;100.00
51299;BME280;37382;45.192;9.790;2024-02-21T11:30:14;102156.16;;;14.37;100.00
51299;BME280;37382;45.192;9.790;2024-02-21T11:32:43;102149.69;;;14.60;100.00
51299;BME280;37382;45.192;9.790;2024-02-21T11:35:19;102148.00;;;14.89;100.00
51299;BME280;37382;45.192;9.790;2024-02-21T11:37:47;102142.53;;;14.89;100.00
51299;BME280;37382;45.192;9.790;2024-02-21T11:40:14;102145.25;;;15.25;100.00
51299;BME280;37382;45.192;9.790;2024-02-21T11:42:42;102130.06;;;15.44;100.00
51299;BME280;37382;45.192;9.790;2024-02-21T11:45:09;102131.81;;;15.30;100.00
51299;BME280;37382;45.192;9.790;2024-02-21T11:47:38;102129.28;;;15.07;100.00
51299;BME280;37382;45.192;9.790;2024-02-21T11:50:11;102129.88;;;15.46;100.00
51299;BME280;37382;45.192;9.790;2024-02-21T11:52:41;102125.34;;;15.60;100.00
51299;BME280;37382;45.192;9.790;2024-02-21T11:55:09;102117.13;;;15.60;100.00
51299;BME280;37382;45.192;9.790;2024-02-21T11:57:37;102110.47;;;15.76;100.00
51299;BME280;37382;45.192;9.790;2024-02-21T12:00:19;102108.25;;;15.79;100.00
51299;BME280;37382;45.192;9.790;2024-02-21T12:02:48;102110.81;;;15.88;100.00
51299;BME280;37382;45.192;9.790;2024-02-21T12:05:18;102100.38;;;16.05;100.00
51299;BME280;37382;45.192;9.790;2024-02-21T12:07:46;102092.91;;;15.92;100.00
51299;BME280;37382;45.192;9.790;2024-02-21T12:10:14;102094.38;;;15.66;100.00
51299;BME280;37382;45.192;9.790;2024-02-21T12:12:41;102084.25;;;15.88;100.00
51299;BME280;37382;45.192;9.790;2024-02-21T12:15:08;102073.59;;;15.50;100.00
51299;BME280;37382;45.192;9.790;2024-02-21T12:17:37;102079.94;;;15.79;100.00
51299;BME280;37382;45.192;9.790;2024-02-21T12:20:06;102059.56;;;16.23;100.00
51299;BME280;37382;45.192;9.790;2024-02-21T12:22:43;102060.78;;;15.86;100.00
51299;BME280;37382;45.192;9.790;2024-02-21T12:27:46;102038.28;;;16.39;100.00
51299;BME280;37382;45.192;9.790;2024-02-21T12:30:14;102031.78;;;16.53;100.00
51299;BME280;37382;45.192;9.790;2024-02-21T12:32:42;102025.03;;;16.56;100.00
51299;BME280;37382;45.192;9.790;2024-02-21T12:35:09;102017.44;;;16.58;100.00
51299;BME280;37382;45.192;9.790;2024-02-21T12:37:37;102017.25;;;16.66;100.00
51299;BME280;37382;45.192;9.790;2024-02-21T12:40:08;102007.09;;;16.73;100.00
51299;BME280;37382;45.192;9.790;2024-02-21T12:42:37;102010.56;;;17.02;100.00
51299;BME280;37382;45.192;9.790;2024-02-21T12:45:05;102012.50;;;16.95;100.00
51299;BME280;37382;45.192;9.790;2024-02-21T12:47:33;102006.06;;;16.67;100.00
51299;BME280;37382;45.192;9.790;2024-02-21T12:50:00;102012.66;;;16.86;100.00
51299;BME280;37382;45.192;9.790;2024-02-21T12:52:30;101994.28;;;16.94;100.00
51299;BME280;37382;45.192;9.790;2024-02-21T12:54:58;101993.88;;;17.23;100.00
51299;BME280;37382;45.192;9.790;2024-02-21T12:57:26;101989.22;;;17.11;100.00
51299;BME280;37382;45.192;9.790;2024-02-21T12:59:54;101985.41;;;17.52;100.00